Time;durP1;ratioP1;P1;durP2;ratioP2;P2;SDS_P1;SDS_P2;PMS_P1;PMS_P2;Temp;Humidity;BMP_temperature;BMP_pressure;BME280_temperature;BME280_humidity;BME280_pressure;Samples;Min_cycle;Max_cycle;Signal;HPM_P1;HPM_P2
2021/05/24 00:04:43;;;;;;;2.85;0.70;;;11.40;99.90;;;;;;6703928;88;20395;-78
2021/05/24 00:14:47;;;;;;;4.65;0.98;;;11.40;99.90;;;;;;6704745;88;20981;-77
2021/05/24 00:24:47;;;;;;;2.75;0.70;;;11.30;99.90;;;;;;6702674;88;20182;-77
2021/05/24 00:34:48;;;;;;;2.67;0.90;;;11.30;99.90;;;;;;6698529;88;20183;-77
2021/05/24 00:44:49;;;;;;;3.00;0.90;;;11.20;99.90;;;;;;6702737;88;20225;-78
2021/05/24 00:54:49;;;;;;;3.65;0.80;;;11.10;99.90;;;;;;6706393;88;20997;-77
2021/05/24 01:04:50;;;;;;;2.50;1.00;;;11.10;99.90;;;;;;6705085;88;20217;-77
2021/05/24 01:14:51;;;;;;;2.12;0.77;;;11.10;99.90;;;;;;6707300;88;20185;-77
2021/05/24 01:24:51;;;;;;;3.00;0.80;;;11.10;99.90;;;;;;6701441;88;20278;-77
2021/05/24 01:34:54;;;;;;;5.53;0.80;;;11.20;99.90;;;;;;6700267;88;20679;-77
2021/05/24 01:44:54;;;;;;;1.50;0.70;;;11.20;99.90;;;;;;6700184;88;20334;-77
2021/05/24 01:54:55;;;;;;;1.70;0.77;;;11.10;99.90;;;;;;6708751;88;20241;-78
2021/05/24 02:04:55;;;;;;;1.50;0.70;;;11.20;99.90;;;;;;6700783;88;20730;-77
2021/05/24 02:14:56;;;;;;;2.62;0.65;;;11.20;99.90;;;;;;6698002;88;20225;-76
2021/05/24 02:24:57;;;;;;;2.40;0.77;;;11.10;99.90;;;;;;6701289;88;20339;-77
2021/05/24 02:34:58;;;;;;;2.47;0.90;;;11.00;99.90;;;;;;6704506;88;20189;-77
2021/05/24 02:44:58;;;;;;;2.20;0.75;;;10.90;99.90;;;;;;6705378;88;20330;-77
2021/05/24 02:54:59;;;;;;;2.22;0.80;;;10.90;99.90;;;;;;6701315;88;20807;-77
2021/05/24 03:04:59;;;;;;;2.60;0.80;;;10.80;99.90;;;;;;6695356;88;20727;-77
2021/05/24 03:15:00;;;;;;;2.05;0.80;;;10.80;99.90;;;;;;6696021;88;20224;-77
2021/05/24 03:25:00;;;;;;;3.78;0.90;;;10.70;99.90;;;;;;6699693;88;20252;-77
2021/05/24 03:35:01;;;;;;;3.65;0.60;;;10.60;99.90;;;;;;6700471;88;20198;-77
2021/05/24 03:45:04;;;;;;;4.10;0.80;;;10.50;99.90;;;;;;6703043;88;20264;-77
2021/05/24 03:55:05;;;;;;;2.40;0.95;;;10.50;99.90;;;;;;6693273;88;20211;-77
2021/05/24 04:05:19;;;;;;;3.08;1.00;;;10.50;99.90;;;;;;6697827;88;20216;-77
2021/05/24 04:15:19;;;;;;;3.55;0.90;;;10.40;99.90;;;;;;6704341;88;20178;-77
2021/05/24 04:25:20;;;;;;;2.08;0.70;;;10.50;99.90;;;;;;6699433;88;20175;-76
2021/05/24 04:35:21;;;;;;;1.70;0.50;;;10.70;99.90;;;;;;6702229;88;20195;-77
2021/05/24 04:45:23;;;;;;;2.97;0.77;;;10.80;99.90;;;;;;6715834;88;20182;-75
2021/05/24 05:05:28;;;;;;;3.42;0.80;;;11.20;99.90;;;;;;6760868;88;20226;-76
2021/05/24 05:16:09;;;;;;;2.15;0.85;;;11.30;99.90;;;;;;6900661;77;20308;-78
2021/05/24 05:26:12;;;;;;;2.83;0.73;;;11.50;99.90;;;;;;6761757;88;20681;-76
2021/05/24 05:36:33;;;;;;;3.95;0.70;;;11.60;99.90;;;;;;7026984;77;20254;-78
2021/05/24 05:46:35;;;;;;;1.05;0.50;;;12.20;99.90;;;;;;6735795;88;20173;-76
2021/05/24 05:56:35;;;;;;;2.33;0.60;;;12.80;99.90;;;;;;6743022;88;20590;-76
2021/05/24 06:06:36;;;;;;;1.70;0.60;;;13.10;99.90;;;;;;6742616;88;20186;-77
2021/05/24 06:16:36;;;;;;;2.67;0.60;;;13.40;99.90;;;;;;6705405;88;20278;-75
2021/05/24 06:26:37;;;;;;;3.08;0.80;;;14.20;99.90;;;;;;6705470;88;20606;-76
2021/05/24 06:36:38;;;;;;;3.25;0.80;;;14.00;99.90;;;;;;6710806;88;20189;-76
2021/05/24 06:46:38;;;;;;;1.27;0.60;;;14.10;99.90;;;;;;6733585;88;20319;-77
2021/05/24 06:56:39;;;;;;;1.33;0.60;;;13.80;99.90;;;;;;6731405;88;20203;-78
2021/05/24 07:06:40;;;;;;;3.37;0.80;;;14.00;99.90;;;;;;6728179;88;20185;-76
2021/05/24 07:16:41;;;;;;;1.40;0.60;;;14.80;99.90;;;;;;6726935;88;21003;-76
2021/05/24 07:26:41;;;;;;;1.60;0.52;;;15.60;99.90;;;;;;6726745;88;20233;-77
2021/05/24 07:36:42;;;;;;;1.60;0.60;;;15.80;99.90;;;;;;6718124;88;20190;-76
2021/05/24 07:46:44;;;;;;;1.52;0.60;;;16.30;99.90;;;;;;6720351;88;20552;-77
2021/05/24 07:56:46;;;;;;;2.25;0.60;;;17.00;99.90;;;;;;6718657;88;20223;-76
2021/05/24 08:06:47;;;;;;;1.60;0.60;;;18.10;99.10;;;;;;6717049;88;20655;-76
2021/05/24 08:16:48;;;;;;;1.23;0.43;;;18.10;99.20;;;;;;6718973;88;20193;-76
2021/05/24 08:26:49;;;;;;;1.67;0.50;;;18.90;97.40;;;;;;6723208;88;20198;-78
2021/05/24 08:36:49;;;;;;;4.25;0.65;;;18.20;98.20;;;;;;6717954;88;20182;-77
2021/05/24 08:46:51;;;;;;;2.12;0.65;;;18.20;98.80;;;;;;6712713;88;20757;-77
2021/05/24 08:56:52;;;;;;;2.45;0.60;;;18.90;96.30;;;;;;6706751;88;20917;-77
2021/05/24 09:06:53;;;;;;;2.22;0.50;;;18.60;95.10;;;;;;6706117;88;20219;-77
2021/05/24 09:16:58;;;;;;;2.45;0.70;;;18.10;94.70;;;;;;6709885;88;20702;-78
2021/05/24 09:27:01;;;;;;;1.17;0.50;;;18.20;94.00;;;;;;6706759;88;20208;-76
2021/05/24 09:37:02;;;;;;;2.37;0.60;;;18.10;93.80;;;;;;6716403;88;20193;-78
2021/05/24 09:47:03;;;;;;;2.37;0.70;;;18.30;94.80;;;;;;6710282;88;20190;-77
2021/05/24 09:57:10;;;;;;;4.55;0.80;;;18.50;94.50;;;;;;6712998;88;20721;-78
2021/05/24 10:07:11;;;;;;;1.48;0.60;;;18.40;94.20;;;;;;6714409;88;20166;-75
2021/05/24 10:17:14;;;;;;;2.90;0.77;;;18.30;94.20;;;;;;6714764;88;20197;-75
2021/05/24 10:27:15;;;;;;;1.55;0.50;;;18.00;92.40;;;;;;6717153;88;20488;-78
2021/05/24 10:37:18;;;;;;;2.53;0.60;;;18.00;91.40;;;;;;6712850;88;20256;-78
2021/05/24 10:47:25;;;;;;;2.70;0.60;;;17.90;91.30;;;;;;6715368;88;20279;-77
2021/05/24 10:57:30;;;;;;;3.00;0.73;;;17.50;91.10;;;;;;6719723;88;20190;-80
2021/05/24 11:07:35;;;;;;;1.70;0.60;;;17.10;93.10;;;;;;6713793;88;20182;-77
2021/05/24 11:17:58;;;;;;;0.88;0.40;;;17.10;94.50;;;;;;6718112;88;20686;-79
2021/05/24 11:28:12;;;;;;;0.75;0.20;;;16.80;95.80;;;;;;6727116;88;20211;-79
2021/05/24 11:38:29;;;;;;;1.95;0.50;;;16.60;97.20;;;;;;6731348;88;20181;-80
2021/05/24 11:48:40;;;;;;;0.93;0.30;;;16.60;98.80;;;;;;6734189;88;20487;-80
2021/05/24 11:58:57;;;;;;;1.75;0.30;;;16.40;99.90;;;;;;6740794;88;20218;-80
2021/05/24 12:08:58;;;;;;;0.88;0.40;;;16.30;99.90;;;;;;6723028;88;20215;-80
2021/05/24 12:19:01;;;;;;;0.60;0.25;;;16.10;99.90;;;;;;6719389;88;20319;-79
2021/05/24 12:29:04;;;;;;;1.52;0.50;;;15.90;99.90;;;;;;6716003;88;20619;-79
2021/05/24 12:39:06;;;;;;;1.35;0.40;;;16.00;99.90;;;;;;6718428;88;20233;-79
2021/05/24 12:49:07;;;;;;;1.60;0.30;;;16.00;99.90;;;;;;6715679;88;20211;-79
2021/05/24 12:59:19;;;;;;;1.23;0.32;;;15.80;99.90;;;;;;6713871;88;20284;-80
2021/05/24 13:09:23;;;;;;;1.20;0.37;;;15.50;99.90;;;;;;6718501;88;20259;-80
2021/05/24 13:30:09;;;;;;;1.00;0.43;;;15.90;99.90;;;;;;6684197;88;20301;-78
2021/05/24 13:40:10;;;;;;;0.90;0.40;;;15.90;99.90;;;;;;6716099;88;20778;-80
2021/05/24 13:50:11;;;;;;;2.00;0.40;;;15.90;99.90;;;;;;6717881;88;20258;-78
2021/05/24 14:00:13;;;;;;;0.90;0.40;;;15.80;99.90;;;;;;6716565;88;20174;-79
2021/05/24 14:10:15;;;;;;;1.35;0.35;;;15.60;99.90;;;;;;6720685;88;20229;-80
2021/05/24 14:20:16;;;;;;;1.83;0.50;;;15.60;99.90;;;;;;6727058;88;20177;-79
2021/05/24 14:37:12;;;;;;;1.27;0.37;;;15.60;99.90;;;;;;6819594;86;20867;-75
2021/05/24 14:47:15;;;;;;;1.45;0.55;;;15.50;99.90;;;;;;6770628;88;20195;-77
2021/05/24 14:57:15;;;;;;;1.23;0.47;;;15.60;99.90;;;;;;6760160;88;20189;-77
2021/05/24 15:07:16;;;;;;;1.48;0.57;;;15.50;99.90;;;;;;6764172;88;20669;-77
2021/05/24 15:17:16;;;;;;;1.15;0.52;;;15.70;99.90;;;;;;6799137;87;20225;-77
2021/05/24 15:27:17;;;;;;;1.12;0.52;;;15.80;99.90;;;;;;6802859;87;20203;-79
2021/05/24 15:37:19;;;;;;;1.87;0.50;;;15.60;99.90;;;;;;6799337;87;20176;-77
2021/05/24 15:47:19;;;;;;;2.37;1.25;;;15.40;99.90;;;;;;6787427;87;20661;-78
2021/05/24 15:57:20;;;;;;;2.07;0.60;;;15.30;99.90;;;;;;6785560;87;20245;-77
2021/05/24 16:07:21;;;;;;;1.83;0.50;;;15.30;99.90;;;;;;6781248;87;20606;-75
2021/05/24 16:17:22;;;;;;;1.60;0.62;;;15.30;99.90;;;;;;6780926;87;20219;-77
2021/05/24 16:27:22;;;;;;;2.37;0.50;;;15.40;99.90;;;;;;6783714;87;20180;-77
2021/05/24 16:37:23;;;;;;;0.80;0.30;;;15.50;99.90;;;;;;6779630;87;20671;-77
2021/05/24 16:47:23;;;;;;;0.80;0.40;;;15.40;99.90;;;;;;6777311;87;20263;-77
2021/05/24 16:57:24;;;;;;;0.75;0.32;;;15.30;99.90;;;;;;6765197;87;20188;-75
2021/05/24 17:07:24;;;;;;;2.08;0.50;;;16.50;99.90;;;;;;6755159;87;20168;-75
2021/05/24 17:17:25;;;;;;;1.17;0.60;;;17.00;99.90;;;;;;6759036;87;20324;-75
2021/05/24 17:27:26;;;;;;;1.75;0.40;;;15.90;99.90;;;;;;6759624;87;20492;-77
2021/05/24 17:37:27;;;;;;;1.20;0.40;;;15.30;99.90;;;;;;6758579;87;20209;-76
2021/05/24 17:47:27;;;;;;;0.82;0.40;;;16.10;99.90;;;;;;6761459;87;20188;-78
2021/05/24 17:57:28;;;;;;;1.90;0.55;;;15.80;99.90;;;;;;6756836;87;20183;-77
2021/05/24 18:07:28;;;;;;;1.25;0.40;;;15.30;99.90;;;;;;6761681;87;20244;-76
2021/05/24 18:17:29;;;;;;;1.45;0.50;;;14.90;99.90;;;;;;6760656;87;20964;-77
2021/05/24 18:27:29;;;;;;;3.22;1.00;;;15.10;99.90;;;;;;6768074;87;20687;-77
2021/05/24 18:37:30;;;;;;;0.95;0.50;;;14.80;99.90;;;;;;6769068;87;20679;-76
2021/05/24 18:47:30;;;;;;;1.42;0.70;;;14.50;99.90;;;;;;6768460;87;20205;-77
2021/05/24 18:57:35;;;;;;;2.58;0.75;;;14.50;99.90;;;;;;6768827;87;20224;-77
2021/05/24 19:07:35;;;;;;;1.52;0.30;;;14.20;99.90;;;;;;6769815;87;20228;-77
2021/05/24 19:17:36;;;;;;;2.25;0.30;;;12.30;99.90;;;;;;6766972;87;20221;-77
2021/05/24 19:27:37;;;;;;;1.40;0.30;;;11.50;99.90;;;;;;6769169;87;20171;-77
2021/05/24 19:37:38;;;;;;;1.27;0.40;;;11.30;99.90;;;;;;6775439;87;20242;-77
2021/05/24 20:28:37;;;;;;;0.90;0.35;;;11.00;99.90;;;;;;6762832;88;20189;-78
2021/05/24 20:38:38;;;;;;;1.00;0.40;;;11.00;99.90;;;;;;6772558;88;20197;-77
2021/05/24 20:48:39;;;;;;;1.00;0.40;;;11.10;99.90;;;;;;6774064;87;20226;-78
2021/05/24 20:58:42;;;;;;;1.55;0.50;;;11.00;99.90;;;;;;6775212;87;20192;-76
2021/05/24 21:08:43;;;;;;;2.72;0.57;;;11.00;99.90;;;;;;6776459;87;20744;-78
2021/05/24 21:18:44;;;;;;;0.70;0.30;;;11.00;99.90;;;;;;6776882;88;20211;-76
2021/05/24 21:28:45;;;;;;;1.67;0.40;;;10.80;99.90;;;;;;6777172;88;20177;-78
2021/05/24 21:38:47;;;;;;;2.00;0.47;;;10.70;99.90;;;;;;6773567;88;20200;-79
2021/05/24 21:48:47;;;;;;;4.03;0.45;;;10.70;99.90;;;;;;6777365;88;20630;-77
2021/05/24 21:58:48;;;;;;;2.10;0.60;;;10.60;99.90;;;;;;6775292;88;20219;-78
2021/05/24 22:08:49;;;;;;;1.53;0.60;;;10.50;99.90;;;;;;6749118;87;20731;-77
2021/05/24 22:18:49;;;;;;;1.10;0.43;;;10.50;99.90;;;;;;6750558;88;20541;-77
2021/05/24 22:28:50;;;;;;;1.52;0.50;;;10.50;99.90;;;;;;6740495;88;20251;-77
2021/05/24 22:38:51;;;;;;;2.17;0.60;;;10.50;99.90;;;;;;6745300;88;20206;-77
2021/05/24 22:48:51;;;;;;;2.20;0.50;;;10.40;99.90;;;;;;6750473;88;20220;-77
2021/05/24 22:58:52;;;;;;;2.35;0.52;;;10.50;99.90;;;;;;6754732;88;20631;-77
2021/05/24 23:08:52;;;;;;;2.12;0.65;;;10.50;99.90;;;;;;6754629;88;20216;-77
2021/05/24 23:18:53;;;;;;;1.60;0.90;;;10.40;99.90;;;;;;6752510;88;20191;-77
2021/05/24 23:28:54;;;;;;;1.10;0.60;;;10.40;99.90;;;;;;6755169;88;20996;-77
2021/05/24 23:38:54;;;;;;;2.12;0.60;;;10.40;99.90;;;;;;6753074;88;20680;-77
2021/05/24 23:48:55;;;;;;;2.95;0.60;;;10.30;99.90;;;;;;6760576;88;20691;-77
2021/05/24 23:58:55;;;;;;;0.85;0.17;;;10.40;99.90;;;;;;6769079;88;20200;-76
